createdAt,value
2022-12-06T00:02:58.793Z,36.02
2022-12-06T00:08:04.061Z,36.34
2022-12-06T00:13:09.167Z,36.68
2022-12-06T00:18:14.144Z,35.90
2022-12-06T00:23:19.122Z,37.27
2022-12-06T00:28:24.111Z,36.06
2022-12-06T00:33:30.361Z,35.89
2022-12-06T00:38:36.109Z,36.72
2022-12-06T00:43:41.595Z,34.68
2022-12-06T00:48:47.911Z,34.91
2022-12-06T00:53:53.650Z,34.01
2022-12-06T00:58:58.919Z,33.85
2022-12-06T01:04:06.617Z,34.00
2022-12-06T01:09:12.923Z,33.78
2022-12-06T01:14:18.043Z,33.62
2022-12-06T01:19:23.445Z,33.52
2022-12-06T01:24:28.711Z,33.63
2022-12-06T01:29:38.974Z,33.79
2022-12-06T01:34:46.537Z,33.97
2022-12-06T01:39:51.926Z,33.60
2022-12-06T01:45:01.976Z,32.82
2022-12-06T01:50:17.226Z,32.79
2022-12-06T01:55:26.077Z,33.06
2022-12-06T02:00:31.523Z,33.52
2022-12-06T02:05:41.003Z,33.57
2022-12-06T02:10:46.674Z,33.35
2022-12-06T02:16:20.637Z,33.73
2022-12-06T02:21:37.091Z,33.01
2022-12-06T02:26:51.397Z,32.70
2022-12-06T02:31:56.776Z,32.83
2022-12-06T02:37:25.740Z,33.10
2022-12-06T02:43:02.913Z,32.27
2022-12-06T02:48:11.293Z,32.83
2022-12-06T02:53:21.378Z,32.33
2022-12-06T02:58:26.848Z,32.75
2022-12-06T03:03:57.045Z,32.49
2022-12-06T03:09:08.524Z,32.67
2022-12-06T03:14:22.706Z,32.17
2022-12-06T03:19:31.481Z,32.58
2022-12-06T03:24:41.413Z,32.27
2022-12-06T03:29:54.582Z,32.41
2022-12-06T03:35:05.026Z,32.31
2022-12-06T03:40:26.678Z,32.43
2022-12-06T03:45:55.896Z,31.55
2022-12-06T03:51:10.500Z,31.21
2022-12-06T03:56:15.973Z,31.04
2022-12-06T04:01:22.786Z,31.53
2022-12-06T04:06:28.924Z,31.41
2022-12-06T04:11:35.190Z,28.02
2022-12-06T04:16:58.729Z,22.72
2022-12-06T04:22:21.264Z,21.88
2022-12-06T04:27:44.938Z,22.04
2022-12-06T04:33:08.283Z,22.33
2022-12-06T04:38:34.490Z,21.10
2022-12-06T04:43:43.717Z,21.19
2022-12-06T04:48:52.290Z,22.31
2022-12-06T04:53:57.908Z,20.86
2022-12-06T04:59:05.292Z,20.25
2022-12-06T05:04:12.096Z,21.18
2022-12-06T05:09:17.924Z,19.54
2022-12-06T05:14:23.491Z,22.23
2022-12-06T05:19:33.164Z,20.52
2022-12-06T05:24:39.205Z,20.33
2022-12-06T05:29:44.826Z,20.95
2022-12-06T05:34:50.264Z,19.58
2022-12-06T05:40:00.588Z,23.45
2022-12-06T05:45:06.510Z,18.95
2022-12-06T05:50:15.146Z,20.00
2022-12-06T05:55:26.012Z,21.20
2022-12-06T06:00:31.571Z,19.44
2022-12-06T06:05:41.162Z,20.52
2022-12-06T06:10:48.415Z,23.51
2022-12-06T06:15:55.147Z,19.70
2022-12-06T06:21:04.391Z,21.85
2022-12-06T06:26:12.558Z,20.88
2022-12-06T06:31:21.501Z,19.70
2022-12-06T06:36:27.044Z,18.98
2022-12-06T06:41:35.531Z,19.04
2022-12-06T06:46:43.808Z,18.07
2022-12-06T06:51:50.545Z,18.13
2022-12-06T06:56:58.501Z,19.42
2022-12-06T07:02:04.755Z,18.62
2022-12-06T07:07:19.279Z,20.62
2022-12-06T07:12:27.448Z,22.59
2022-12-06T07:17:34.872Z,18.66
2022-12-06T07:22:40.761Z,20.37
2022-12-06T07:27:46.597Z,18.11
2022-12-06T07:32:54.440Z,21.42
2022-12-06T07:38:00.227Z,20.69
2022-12-06T07:43:24.439Z,22.35
2022-12-06T07:48:32.310Z,21.74
2022-12-06T07:53:39.647Z,20.37
2022-12-06T07:58:45.253Z,23.03
2022-12-06T08:03:52.411Z,22.66
2022-12-06T08:08:59.085Z,22.46
2022-12-06T08:14:08.494Z,24.99
2022-12-06T08:19:15.469Z,25.58
2022-12-06T08:24:23.536Z,25.43
2022-12-06T08:29:29.511Z,25.57
2022-12-06T08:34:36.384Z,25.69
2022-12-06T08:39:43.663Z,25.14
2022-12-06T08:44:53.277Z,25.52
2022-12-06T08:50:00.490Z,25.82
2022-12-06T08:55:08.987Z,24.63
2022-12-06T09:00:15.122Z,24.55
2022-12-06T09:05:23.790Z,24.86
2022-12-06T09:10:29.954Z,24.82
2022-12-06T09:15:37.543Z,25.20
2022-12-06T09:20:44.439Z,25.06
2022-12-06T09:25:50.189Z,24.76
2022-12-06T09:30:59.602Z,24.08
2022-12-06T09:36:16.653Z,25.62
2022-12-06T09:41:32.200Z,25.65
2022-12-06T09:46:50.724Z,24.94
2022-12-06T09:52:17.260Z,26.29
2022-12-06T09:57:51.986Z,26.05
2022-12-06T10:03:09.657Z,25.95
2022-12-06T10:08:36.692Z,26.50
2022-12-06T10:13:57.331Z,26.08
2022-12-06T10:19:27.797Z,26.93
2022-12-06T10:25:09.718Z,26.40
2022-12-06T10:30:17.522Z,26.42
2022-12-06T10:35:35.151Z,25.80
2022-12-06T10:41:12.507Z,26.21
2022-12-06T10:46:45.967Z,26.73
2022-12-06T10:52:07.628Z,26.09
2022-12-06T10:57:35.769Z,26.40
2022-12-06T11:02:58.863Z,26.16
2022-12-06T11:08:17.710Z,25.94
2022-12-06T11:13:35.301Z,26.34
2022-12-06T11:18:41.997Z,26.57
2022-12-06T11:24:24.078Z,26.65
2022-12-06T11:29:29.297Z,26.65
2022-12-06T11:34:56.208Z,26.70
2022-12-06T11:40:32.454Z,27.17
2022-12-06T11:45:42.214Z,26.93
2022-12-06T11:50:50.597Z,27.05
2022-12-06T11:56:02.700Z,27.05
2022-12-06T12:01:17.232Z,27.10
2022-12-06T12:06:30.079Z,27.67
2022-12-06T12:11:39.315Z,27.67
2022-12-06T12:16:52.263Z,27.68
2022-12-06T12:22:00.112Z,27.96
2022-12-06T12:27:33.599Z,28.55
2022-12-06T12:32:38.646Z,28.15
2022-12-06T12:37:44.119Z,29.40
2022-12-06T12:42:50.356Z,28.54
2022-12-06T12:48:24.692Z,28.34
2022-12-06T12:53:43.120Z,28.41
2022-12-06T12:59:02.483Z,29.46
2022-12-06T13:04:16.627Z,28.94
2022-12-06T13:09:30.745Z,29.87
2022-12-06T13:14:37.689Z,29.86
2022-12-06T13:19:53.424Z,30.22
2022-12-06T13:25:08.192Z,30.21
2022-12-06T13:30:19.788Z,30.76
2022-12-06T13:35:44.910Z,30.20
2022-12-06T13:41:01.200Z,30.81
2022-12-06T13:46:15.798Z,30.46
2022-12-06T13:51:36.344Z,30.43
2022-12-06T13:56:44.506Z,29.96
2022-12-06T14:01:53.737Z,29.91
2022-12-06T14:07:34.173Z,29.56
2022-12-06T14:12:39.750Z,31.45
2022-12-06T14:18:09.633Z,30.62
2022-12-06T14:23:32.708Z,30.18
2022-12-06T14:28:39.493Z,30.07
2022-12-06T14:33:46.255Z,30.48
2022-12-06T14:39:19.837Z,30.66
2022-12-06T14:44:34.395Z,30.59
2022-12-06T14:49:58.658Z,30.05
2022-12-06T14:55:32.043Z,31.01
2022-12-06T15:01:18.930Z,30.82
2022-12-06T15:06:26.755Z,30.34
2022-12-06T15:11:50.448Z,31.17
2022-12-06T15:17:20.212Z,31.02
2022-12-06T15:22:29.182Z,30.75
2022-12-06T15:27:35.791Z,31.08
2022-12-06T15:32:41.556Z,31.25
2022-12-06T15:37:50.337Z,31.73
2022-12-06T15:43:00.632Z,31.49
2022-12-06T15:48:08.172Z,31.38
2022-12-06T15:53:20.719Z,31.38
2022-12-06T15:58:26.337Z,31.96
2022-12-06T16:03:33.837Z,32.52
2022-12-06T16:08:39.218Z,32.94
2022-12-06T16:13:44.457Z,32.76
2022-12-06T16:18:51.040Z,32.32
2022-12-06T16:24:13.191Z,32.70
2022-12-06T16:29:26.688Z,32.34
2022-12-06T16:34:31.571Z,33.11
2022-12-06T16:39:37.521Z,32.03
2022-12-06T16:44:52.181Z,33.03
2022-12-06T16:49:57.362Z,33.48
2022-12-06T16:55:02.655Z,32.70
2022-12-06T17:00:08.421Z,33.42
2022-12-06T17:05:20.437Z,32.89
2022-12-06T17:10:25.299Z,33.04
2022-12-06T17:15:30.293Z,32.88
2022-12-06T17:20:34.963Z,32.67
2022-12-06T17:25:39.567Z,33.20
2022-12-06T17:30:49.298Z,32.46
2022-12-06T17:35:56.750Z,33.06
2022-12-06T17:41:01.312Z,33.34
2022-12-06T17:46:10.396Z,33.72
2022-12-06T17:51:15.095Z,33.25
2022-12-06T17:56:32.004Z,32.86
2022-12-06T18:02:06.265Z,32.74
2022-12-06T18:07:02.728Z,32.74
2022-12-06T18:12:06.796Z,32.37
2022-12-06T18:17:10.873Z,32.80
2022-12-06T18:22:16.586Z,32.94
2022-12-06T18:27:21.132Z,32.33
2022-12-06T18:32:25.658Z,32.36
2022-12-06T18:37:30.215Z,32.64
2022-12-06T18:42:36.069Z,32.31
2022-12-06T18:47:40.706Z,31.16
2022-12-06T18:52:45.350Z,30.81
2022-12-06T18:57:49.987Z,29.65
2022-12-06T19:02:54.598Z,30.05
2022-12-06T19:07:59.243Z,29.65
2022-12-06T19:13:05.815Z,29.76
2022-12-06T19:18:14.680Z,29.85
2022-12-06T19:23:19.722Z,29.22
2022-12-06T19:28:24.241Z,29.15
2022-12-06T19:33:29.096Z,28.78
2022-12-06T19:38:34.790Z,30.81
2022-12-06T19:43:57.504Z,30.65
2022-12-06T19:49:06.641Z,31.53
2022-12-06T19:54:15.462Z,31.97
2022-12-06T19:59:20.749Z,30.89
2022-12-06T20:04:31.083Z,31.12
2022-12-06T20:09:36.453Z,32.44
2022-12-06T20:14:49.871Z,31.44
2022-12-06T20:19:54.476Z,31.79
2022-12-06T20:24:59.135Z,31.57
2022-12-06T20:30:04.093Z,32.20
2022-12-06T20:35:09.130Z,31.90
2022-12-06T20:40:14.304Z,31.93
2022-12-06T20:45:20.339Z,31.78
2022-12-06T20:50:24.917Z,31.70
2022-12-06T20:55:29.769Z,32.04
2022-12-06T21:00:34.486Z,32.49
2022-12-06T21:05:41.040Z,32.24
2022-12-06T21:11:21.189Z,32.35
2022-12-06T21:16:27.499Z,33.22
2022-12-06T21:21:35.806Z,34.92
2022-12-06T21:26:40.986Z,33.90
2022-12-06T21:31:45.779Z,33.59
2022-12-06T21:36:50.354Z,33.22
2022-12-06T21:41:55.297Z,33.62
2022-12-06T21:46:59.910Z,33.40
2022-12-06T21:52:09.202Z,34.53
2022-12-06T21:57:14.096Z,34.39
2022-12-06T22:02:19.861Z,33.82
2022-12-06T22:07:24.551Z,33.83
2022-12-06T22:12:29.499Z,34.82
2022-12-06T22:17:34.047Z,33.83
2022-12-06T22:22:38.088Z,34.14
2022-12-06T22:27:42.583Z,33.99
2022-12-06T22:32:47.194Z,34.89
2022-12-06T22:37:51.778Z,33.99
2022-12-06T22:42:56.248Z,33.25
2022-12-06T22:48:00.823Z,33.81
2022-12-06T22:53:04.847Z,33.53
2022-12-06T22:58:09.428Z,34.73
2022-12-06T23:03:14.110Z,34.44
2022-12-06T23:08:18.697Z,35.04
2022-12-06T23:13:23.398Z,34.71
2022-12-06T23:18:29.630Z,34.84
2022-12-06T23:23:34.394Z,35.25
2022-12-06T23:28:39.239Z,35.47
2022-12-06T23:33:45.578Z,35.15
2022-12-06T23:38:50.628Z,35.20
2022-12-06T23:43:55.254Z,35.89
2022-12-06T23:49:00.134Z,35.04
2022-12-06T23:54:07.385Z,34.52
2022-12-06T23:59:15.664Z,35.73
